createdAt,value
2022-11-22T00:01:17.585Z,96273.44
2022-11-22T00:06:20.285Z,96272.34
2022-11-22T00:11:24.409Z,96267.72
2022-11-22T00:16:27.154Z,96267.25
2022-11-22T00:21:29.983Z,96248.44
2022-11-22T00:26:34.100Z,96246.66
2022-11-22T00:31:36.887Z,96259.41
2022-11-22T00:36:39.638Z,96247.88
2022-11-22T00:41:43.785Z,96241.28
2022-11-22T00:46:46.565Z,96229.44
2022-11-22T00:51:49.477Z,96227.28
2022-11-22T00:56:53.673Z,96224.50
2022-11-22T01:01:56.940Z,96242.00
2022-11-22T01:06:59.760Z,96245.94
2022-11-22T01:12:04.040Z,96243.97
2022-11-22T01:17:07.046Z,96248.94
2022-11-22T01:22:09.834Z,96263.81
2022-11-22T01:27:13.932Z,96248.13
2022-11-22T01:32:16.713Z,96253.13
2022-11-22T01:37:19.503Z,96249.84
2022-11-22T01:42:23.566Z,96253.97
2022-11-22T01:47:26.513Z,96258.13
2022-11-22T01:52:33.574Z,96254.38
2022-11-22T01:57:41.712Z,96266.59
2022-11-22T02:02:47.097Z,96276.84
2022-11-22T02:07:55.652Z,96284.47
2022-11-22T02:13:00.994Z,96294.72
2022-11-22T02:18:03.807Z,96307.63
2022-11-22T02:23:13.005Z,96301.38
2022-11-22T02:28:17.219Z,96293.13
2022-11-22T02:33:19.979Z,96287.97
2022-11-22T02:38:25.384Z,96284.16
2022-11-22T02:43:32.425Z,96295.66
2022-11-22T02:48:35.644Z,96285.09
2022-11-22T02:53:38.585Z,96299.28
2022-11-22T02:58:43.772Z,96299.28
2022-11-22T03:03:46.464Z,96305.38
2022-11-22T03:08:54.719Z,96306.38
2022-11-22T03:14:00.324Z,96324.72
2022-11-22T03:19:03.064Z,96333.66
2022-11-22T03:24:06.865Z,96330.03
2022-11-22T03:29:11.439Z,96339.38
2022-11-22T03:34:14.314Z,96349.41
2022-11-22T03:39:17.094Z,96348.28
2022-11-22T03:44:21.150Z,96349.41
2022-11-22T03:49:23.917Z,96354.50
2022-11-22T03:54:26.681Z,96356.22
2022-11-22T03:59:30.871Z,96360.59
2022-11-22T04:04:33.746Z,96357.88
2022-11-22T04:09:36.679Z,96369.88
2022-11-22T04:14:58.362Z,96360.22
2022-11-22T04:20:22.804Z,96365.72
2022-11-22T04:25:25.874Z,96356.44
2022-11-22T04:30:45.494Z,96341.63
2022-11-22T04:35:48.778Z,96345.38
2022-11-22T04:40:51.687Z,96344.88
2022-11-22T04:45:55.737Z,96343.09
2022-11-22T04:51:15.889Z,96350.72
2022-11-22T04:56:19.064Z,96364.28
2022-11-22T05:01:23.218Z,96368.16
2022-11-22T05:06:26.093Z,96370.81
2022-11-22T05:11:28.938Z,96377.59
2022-11-22T05:16:33.155Z,96380.25
2022-11-22T05:21:37.400Z,96389.56
2022-11-22T05:26:40.222Z,96404.19
2022-11-22T05:31:51.031Z,96401.69
2022-11-22T05:36:54.392Z,96405.16
2022-11-22T05:41:57.104Z,96406.81
2022-11-22T05:47:01.292Z,96405.16
2022-11-22T05:52:05.180Z,96422.09
2022-11-22T05:57:07.984Z,96412.22
2022-11-22T06:02:12.201Z,96430.13
2022-11-22T06:07:15.100Z,96444.31
2022-11-22T06:12:18.014Z,96445.16
2022-11-22T06:17:22.166Z,96462.09
2022-11-22T06:22:24.970Z,96474.31
2022-11-22T06:27:27.803Z,96480.00
2022-11-22T06:32:35.021Z,96494.56
2022-11-22T06:37:38.204Z,96503.13
2022-11-22T06:42:40.949Z,96502.41
2022-11-22T06:47:45.097Z,96513.66
2022-11-22T06:52:51.993Z,96523.94
2022-11-22T06:57:54.782Z,96524.47
2022-11-22T07:02:58.848Z,96523.03
2022-11-22T07:08:07.854Z,96522.88
2022-11-22T07:13:10.836Z,96528.25
2022-11-22T07:18:14.997Z,96526.81
2022-11-22T07:23:17.986Z,96534.47
2022-11-22T07:28:22.163Z,96544.28
2022-11-22T07:33:27.024Z,96542.19
2022-11-22T07:38:30.805Z,96553.00
2022-11-22T07:43:34.119Z,96554.19
2022-11-22T07:48:38.746Z,96547.78
2022-11-22T07:53:41.778Z,96541.22
2022-11-22T07:58:44.547Z,96540.63
2022-11-22T08:03:48.923Z,96543.13
2022-11-22T08:08:54.534Z,96557.13
2022-11-22T08:14:00.414Z,96567.53
2022-11-22T08:19:05.668Z,96560.84
2022-11-22T08:24:08.473Z,96565.16
2022-11-22T08:29:14.528Z,96559.06
2022-11-22T08:34:18.902Z,96568.34
2022-11-22T08:39:22.838Z,96569.34
2022-11-22T08:44:25.723Z,96582.31
2022-11-22T08:49:30.091Z,96593.44
2022-11-22T08:54:37.544Z,96598.75
2022-11-22T08:59:40.968Z,96605.09
2022-11-22T09:04:45.537Z,96606.69
2022-11-22T09:09:48.616Z,96608.22
2022-11-22T09:14:51.979Z,96607.00
2022-11-22T09:20:00.528Z,96616.03
2022-11-22T09:25:03.345Z,96611.81
2022-11-22T09:30:07.346Z,96609.31
2022-11-22T09:35:12.146Z,96612.09
2022-11-22T09:40:16.533Z,96605.16
2022-11-22T09:45:39.428Z,96597.94
2022-11-22T09:50:53.077Z,96583.41
2022-11-22T09:56:00.813Z,96579.94
2022-11-22T10:01:10.028Z,96579.13
2022-11-22T10:06:22.005Z,96591.25
2022-11-22T10:11:36.962Z,96591.16
2022-11-22T10:16:45.273Z,96603.16
2022-11-22T10:21:49.513Z,96587.72
2022-11-22T10:26:54.370Z,96585.53
2022-11-22T10:32:08.469Z,96574.56
2022-11-22T10:37:23.464Z,96568.84
2022-11-22T10:42:50.897Z,96574.72
2022-11-22T10:48:08.404Z,96566.06
2022-11-22T10:53:23.599Z,96544.78
2022-11-22T10:58:36.308Z,96536.94
2022-11-22T11:03:44.903Z,96536.41
2022-11-22T11:14:27.386Z,96536.47
2022-11-22T11:19:33.968Z,96553.13
2022-11-22T11:24:41.915Z,96542.13
2022-11-22T11:29:47.988Z,96554.28
2022-11-22T11:34:56.004Z,96548.59
2022-11-22T11:40:01.635Z,96539.81
2022-11-22T11:45:27.944Z,96532.22
2022-11-22T11:50:31.912Z,96535.84
2022-11-22T11:55:38.229Z,96537.72
2022-11-22T12:00:41.799Z,96526.03
2022-11-22T12:05:44.801Z,96534.50
2022-11-22T12:10:58.578Z,96534.28
2022-11-22T12:16:10.464Z,96535.28
2022-11-22T12:21:19.946Z,96530.09
2022-11-22T12:26:24.061Z,96529.75
2022-11-22T12:31:33.076Z,96527.69
2022-11-22T12:36:42.802Z,96516.75
2022-11-22T12:41:49.954Z,96514.94
2022-11-22T12:46:58.580Z,96514.59
2022-11-22T12:52:09.511Z,96514.41
2022-11-22T12:57:22.238Z,96513.38
2022-11-22T13:02:35.451Z,96510.44
2022-11-22T13:07:50.922Z,96524.91
2022-11-22T13:12:56.950Z,96522.47
2022-11-22T13:18:00.925Z,96531.31
2022-11-22T13:23:21.006Z,96521.47
2022-11-22T13:28:29.225Z,96511.72
2022-11-22T13:33:32.831Z,96514.19
2022-11-22T13:38:35.976Z,96517.47
2022-11-22T13:43:56.514Z,96524.25
2022-11-22T13:49:32.535Z,96517.63
2022-11-22T13:55:29.501Z,96512.53
2022-11-22T14:00:43.332Z,96499.19
2022-11-22T14:05:49.831Z,96505.31
2022-11-22T14:11:09.086Z,96491.81
2022-11-22T14:16:29.561Z,96505.69
2022-11-22T14:22:02.753Z,96508.28
2022-11-22T14:27:20.365Z,96508.66
2022-11-22T14:32:27.102Z,96511.31
2022-11-22T14:37:46.434Z,96524.84
2022-11-22T14:42:53.649Z,96526.28
2022-11-22T14:48:04.412Z,96537.19
2022-11-22T14:53:21.144Z,96530.59
2022-11-22T14:58:29.392Z,96514.03
2022-11-22T15:09:19.457Z,96521.47
2022-11-22T15:09:53.712Z,96517.16
2022-11-22T15:58:57.325Z,96565.69
2022-11-22T16:04:00.671Z,96563.03
2022-11-22T16:09:06.412Z,96582.69
2022-11-22T16:14:43.956Z,96568.47
2022-11-22T16:19:46.797Z,96569.63
2022-11-22T16:24:51.190Z,96586.19
2022-11-22T16:29:54.246Z,96581.19
2022-11-22T16:35:21.747Z,96585.50
2022-11-22T16:40:22.138Z,96588.16
2022-11-22T16:45:25.003Z,96593.59
2022-11-22T16:50:27.902Z,96592.75
2022-11-22T16:55:32.092Z,96603.19
2022-11-22T17:00:35.391Z,96599.84
2022-11-22T17:05:38.322Z,96598.56
2022-11-22T17:10:45.522Z,96604.84
2022-11-22T17:15:49.354Z,96602.06
2022-11-22T17:20:52.226Z,96612.47
2022-11-22T17:25:56.347Z,96613.16
2022-11-22T17:31:00.146Z,96622.09
2022-11-22T17:36:03.033Z,96625.56
2022-11-22T17:41:07.481Z,96633.88
2022-11-22T17:46:10.289Z,96632.91
2022-11-22T17:51:13.741Z,96643.34
2022-11-22T17:56:18.189Z,96645.69
2022-11-22T18:01:23.491Z,96650.00
2022-11-22T18:06:27.129Z,96654.31
2022-11-22T18:11:31.398Z,96653.34
2022-11-22T18:16:34.336Z,96661.09
2022-11-22T18:21:37.759Z,96668.25
2022-11-22T18:26:42.510Z,96674.34
2022-11-22T18:31:54.472Z,96673.38
2022-11-22T18:37:01.872Z,96680.31
2022-11-22T18:42:07.956Z,96682.00
2022-11-22T18:47:10.798Z,96687.97
2022-11-22T18:52:16.595Z,96687.53
2022-11-22T18:57:22.907Z,96686.53
2022-11-22T19:02:28.297Z,96687.53
2022-11-22T19:07:31.264Z,96692.69
2022-11-22T19:12:35.518Z,96696.31
2022-11-22T19:17:39.409Z,96697.97
2022-11-22T19:22:42.176Z,96695.84
2022-11-22T19:27:48.176Z,96711.72
2022-11-22T19:32:51.938Z,96706.44
2022-11-22T19:37:54.641Z,96710.75
2022-11-22T19:42:58.918Z,96711.41
2022-11-22T19:48:01.656Z,96706.66
2022-11-22T19:53:04.534Z,96704.84
2022-11-22T19:58:08.818Z,96707.47
2022-11-22T20:03:13.585Z,96702.19
2022-11-22T20:08:16.345Z,96708.47
2022-11-22T20:13:20.574Z,96715.59
2022-11-22T20:18:23.737Z,96722.69
2022-11-22T20:23:26.620Z,96731.19
2022-11-22T20:28:31.018Z,96723.53
2022-11-22T20:33:34.948Z,96718.25
2022-11-22T20:38:39.596Z,96731.19
2022-11-22T20:43:44.297Z,96727.69
2022-11-22T20:48:48.081Z,96729.50
2022-11-22T20:53:52.110Z,96746.09
2022-11-22T20:58:56.409Z,96751.22
2022-11-22T21:03:59.309Z,96751.38
2022-11-22T21:09:02.267Z,96751.22
2022-11-22T21:14:06.584Z,96757.38
2022-11-22T21:19:10.402Z,96760.00
2022-11-22T21:24:13.995Z,96765.31
2022-11-22T21:29:18.217Z,96759.72
2022-11-22T21:34:21.062Z,96764.19
2022-11-22T21:39:23.818Z,96776.16
2022-11-22T21:44:28.223Z,96769.88
2022-11-22T21:49:31.185Z,96768.19
2022-11-22T21:54:34.209Z,96770.53
2022-11-22T21:59:38.398Z,96761.75
2022-11-22T22:04:41.193Z,96754.94
2022-11-22T22:09:43.947Z,96763.72
2022-11-22T22:14:48.179Z,96762.91
2022-11-22T22:19:52.343Z,96763.56
2022-11-22T22:24:55.106Z,96760.09
2022-11-22T22:29:59.312Z,96767.88
2022-11-22T22:35:03.271Z,96768.03
2022-11-22T22:40:06.977Z,96772.22
2022-11-22T22:45:12.406Z,96768.72
2022-11-22T22:50:15.901Z,96781.81
2022-11-22T22:55:18.757Z,96779.31
2022-11-22T23:00:22.930Z,96783.78
2022-11-22T23:05:26.256Z,96777.81
2022-11-22T23:10:29.019Z,96782.25
2022-11-22T23:15:50.853Z,96795.06
2022-11-22T23:20:59.530Z,96795.06
2022-11-22T23:26:03.004Z,96803.00
2022-11-22T23:31:08.554Z,96796.72
2022-11-22T23:36:13.219Z,96798.22
2022-11-22T23:41:18.168Z,96805.06
2022-11-22T23:46:24.939Z,96805.19
2022-11-22T23:51:29.083Z,96803.69
2022-11-22T23:56:34.461Z,96809.81
